createdAt,value
2022-11-18T00:02:36.448Z,6.50
2022-11-18T00:08:38.741Z,6.50
2022-11-18T00:14:40.894Z,6.40
2022-11-18T00:20:42.917Z,6.30
2022-11-18T00:26:45.016Z,6.30
2022-11-18T00:32:47.195Z,6.20
2022-11-18T00:38:49.699Z,6.10
2022-11-18T00:44:51.936Z,6.10
2022-11-18T00:50:56.644Z,6.10
2022-11-18T00:56:58.950Z,6.10
2022-11-18T01:03:01.156Z,6.00
2022-11-18T01:09:03.454Z,5.90
2022-11-18T01:15:06.228Z,5.90
2022-11-18T01:21:08.451Z,5.80
2022-11-18T01:27:10.680Z,5.70
2022-11-18T01:33:13.683Z,5.60
2022-11-18T01:39:16.218Z,5.60
2022-11-18T01:45:21.701Z,5.70
2022-11-18T01:51:32.664Z,5.50
2022-11-18T01:57:35.140Z,5.60
2022-11-18T02:03:37.333Z,5.50
2022-11-18T02:09:39.720Z,5.40
2022-11-18T02:16:00.093Z,5.40
2022-11-18T02:22:26.818Z,5.50
2022-11-18T02:28:36.165Z,5.80
2022-11-18T02:34:47.178Z,6.10
2022-11-18T02:41:06.963Z,6.40
2022-11-18T02:47:13.057Z,6.60
2022-11-18T02:53:19.249Z,6.80
2022-11-18T02:59:22.091Z,6.90
2022-11-18T03:05:42.980Z,6.90
2022-11-18T03:12:04.317Z,6.90
2022-11-18T03:18:47.950Z,7.00
2022-11-18T03:25:00.463Z,7.00
2022-11-18T03:31:05.357Z,6.90
2022-11-18T03:37:11.764Z,6.90
2022-11-18T03:43:19.469Z,6.80
2022-11-18T03:49:29.152Z,6.60
2022-11-18T03:55:35.864Z,6.40
2022-11-18T04:01:46.428Z,6.30
2022-11-18T04:08:00.372Z,6.30
2022-11-18T04:14:04.167Z,6.40
2022-11-18T04:20:06.854Z,6.30
2022-11-18T04:26:11.878Z,6.20
2022-11-18T04:32:14.071Z,6.20
2022-11-18T04:38:21.638Z,6.20
2022-11-18T04:44:31.140Z,6.30
2022-11-18T04:50:33.309Z,6.30
2022-11-18T04:56:35.441Z,6.50
2022-11-18T05:02:37.618Z,6.60
2022-11-18T05:08:40.117Z,6.70
2022-11-18T05:14:45.289Z,6.60
2022-11-18T05:20:51.567Z,6.70
2022-11-18T05:26:55.180Z,6.80
2022-11-18T05:32:57.306Z,6.80
2022-11-18T05:39:00.237Z,6.70
2022-11-18T05:45:02.490Z,6.90
2022-11-18T05:51:04.676Z,7.00
2022-11-18T05:57:06.871Z,7.10
2022-11-18T06:03:16.889Z,7.40
2022-11-18T06:09:23.665Z,7.50
2022-11-18T06:15:33.645Z,7.60
2022-11-18T06:21:35.830Z,7.80
2022-11-18T06:27:37.889Z,8.00
2022-11-18T06:33:39.912Z,7.90
2022-11-18T06:39:42.500Z,7.70
2022-11-18T06:46:08.840Z,8.00
2022-11-18T06:52:11.524Z,8.80
2022-11-18T06:58:13.626Z,9.20
2022-11-18T07:04:15.796Z,9.60
2022-11-18T07:10:17.822Z,10.50
2022-11-18T07:16:22.463Z,11.80
2022-11-18T07:22:24.613Z,12.80
2022-11-18T07:28:28.054Z,12.40
2022-11-18T07:34:30.486Z,13.70
2022-11-18T07:40:32.742Z,15.10
2022-11-18T07:46:36.917Z,15.10
2022-11-18T07:52:39.008Z,15.40
2022-11-18T07:58:41.664Z,15.60
2022-11-18T08:04:43.730Z,15.70
2022-11-18T08:10:45.971Z,15.70
2022-11-18T08:16:48.249Z,15.90
2022-11-18T08:22:50.548Z,15.80
2022-11-18T08:28:53.174Z,16.90
2022-11-18T08:34:55.478Z,16.20
2022-11-18T08:40:58.727Z,15.30
2022-11-18T08:47:01.259Z,14.60
2022-11-18T08:53:03.372Z,14.40
2022-11-18T08:59:05.519Z,14.10
2022-11-18T09:05:08.467Z,14.00
2022-11-18T09:11:15.895Z,14.20
2022-11-18T09:17:18.162Z,14.00
2022-11-18T09:23:20.401Z,14.30
2022-11-18T09:29:28.478Z,14.20
2022-11-18T09:35:30.949Z,13.80
2022-11-18T09:41:46.636Z,13.80
2022-11-18T09:47:49.173Z,14.00
2022-11-18T09:53:51.230Z,14.20
2022-11-18T09:59:53.731Z,14.40
2022-11-18T10:06:29.641Z,14.60
2022-11-18T10:12:46.876Z,14.20
2022-11-18T10:19:00.680Z,14.30
2022-11-18T10:25:03.550Z,14.60
2022-11-18T10:31:09.126Z,15.20
2022-11-18T10:37:39.083Z,15.70
2022-11-18T10:43:56.287Z,15.90
2022-11-18T10:50:01.396Z,15.90
2022-11-18T10:56:06.264Z,15.00
2022-11-18T11:02:31.432Z,15.10
2022-11-18T11:08:37.813Z,15.20
2022-11-18T11:14:48.750Z,15.70
2022-11-18T11:20:52.979Z,15.50
2022-11-18T11:33:33.317Z,15.10
2022-11-18T11:39:53.594Z,15.20
2022-11-18T11:46:20.300Z,15.20
2022-11-18T11:52:35.373Z,15.20
2022-11-18T11:59:11.435Z,15.00
2022-11-18T12:05:19.533Z,14.90
2022-11-18T12:11:37.880Z,14.70
2022-11-18T12:17:48.036Z,14.70
2022-11-18T12:24:18.625Z,14.50
2022-11-18T12:30:20.794Z,14.30
2022-11-18T12:36:31.750Z,14.30
2022-11-18T12:42:57.085Z,13.80
2022-11-18T12:49:24.035Z,13.50
2022-11-18T12:55:31.072Z,13.60
2022-11-18T13:01:35.663Z,13.80
2022-11-18T13:08:11.348Z,13.40
2022-11-18T13:14:37.701Z,13.20
2022-11-18T13:20:41.004Z,13.20
2022-11-18T13:26:45.698Z,13.10
2022-11-18T13:32:49.026Z,12.90
2022-11-18T13:39:06.680Z,12.80
2022-11-18T13:45:13.546Z,12.70
2022-11-18T13:51:15.784Z,12.40
2022-11-18T13:57:20.732Z,12.30
2022-11-18T14:03:36.261Z,12.00
2022-11-18T14:09:52.122Z,12.00
2022-11-18T14:22:20.709Z,11.80
2022-11-18T14:28:34.311Z,11.70
2022-11-18T14:34:36.344Z,11.60
2022-11-18T14:40:38.419Z,11.40
2022-11-18T14:46:43.385Z,11.20
2022-11-18T14:52:45.326Z,11.10
2022-11-18T14:58:47.569Z,11.00
2022-11-18T15:04:51.132Z,11.00
2022-11-18T15:10:53.743Z,10.90
2022-11-18T15:16:56.049Z,10.80
2022-11-18T15:22:58.343Z,10.80
2022-11-18T15:29:00.520Z,10.60
2022-11-18T15:35:02.796Z,10.60
2022-11-18T15:41:05.255Z,10.60
2022-11-18T15:47:07.430Z,10.50
2022-11-18T15:53:09.501Z,10.40
2022-11-18T15:59:16.653Z,10.40
2022-11-18T16:05:18.714Z,10.40
2022-11-18T16:11:39.633Z,10.40
2022-11-18T16:17:41.669Z,10.40
2022-11-18T16:23:43.754Z,10.40
2022-11-18T16:29:45.705Z,10.40
2022-11-18T16:35:48.555Z,10.30
2022-11-18T16:42:02.258Z,10.30
2022-11-18T16:48:08.640Z,10.20
2022-11-18T16:54:31.751Z,10.10
2022-11-18T17:01:00.276Z,10.10
2022-11-18T17:06:56.369Z,10.20
2022-11-18T17:12:58.467Z,10.30
2022-11-18T17:19:01.230Z,10.30
2022-11-18T17:25:05.482Z,10.30
2022-11-18T17:31:09.238Z,10.30
2022-11-18T17:37:11.428Z,10.40
2022-11-18T17:43:15.709Z,10.30
2022-11-18T17:49:19.028Z,10.30
2022-11-18T17:55:23.368Z,10.30
2022-11-18T18:01:25.966Z,10.20
2022-11-18T18:07:30.718Z,10.20
2022-11-18T18:13:51.537Z,10.10
2022-11-18T18:19:53.694Z,10.10
2022-11-18T18:25:55.903Z,10.10
2022-11-18T18:31:58.645Z,10.10
2022-11-18T18:38:00.809Z,10.00
2022-11-18T18:44:02.736Z,10.00
2022-11-18T18:50:05.301Z,10.00
2022-11-18T18:56:07.623Z,10.10
2022-11-18T19:02:12.661Z,10.10
2022-11-18T19:08:14.873Z,10.20
2022-11-18T19:14:18.870Z,10.10
2022-11-18T19:20:39.658Z,10.20
2022-11-18T19:26:41.726Z,10.20
2022-11-18T19:32:44.078Z,10.10
2022-11-18T19:38:49.956Z,10.10
2022-11-18T19:44:52.043Z,10.10
2022-11-18T19:51:09.548Z,10.00
2022-11-18T19:57:11.545Z,9.90
2022-11-18T20:03:13.514Z,9.80
2022-11-18T20:09:15.992Z,9.80
2022-11-18T20:15:18.832Z,9.80
2022-11-18T20:21:21.261Z,9.80
2022-11-18T20:27:23.430Z,9.90
2022-11-18T20:33:25.595Z,9.90
2022-11-18T20:39:29.006Z,9.90
2022-11-18T20:45:31.181Z,9.90
2022-11-18T20:51:33.347Z,10.00
2022-11-18T20:57:35.549Z,9.90
2022-11-18T21:03:38.291Z,9.90
2022-11-18T21:09:40.324Z,9.90
2022-11-18T21:15:42.704Z,9.80
2022-11-18T21:21:44.936Z,9.80
2022-11-18T21:27:47.064Z,9.80
2022-11-18T21:33:50.022Z,9.80
2022-11-18T21:39:51.986Z,9.90
2022-11-18T21:45:54.369Z,9.80
2022-11-18T21:51:57.294Z,9.90
2022-11-18T21:58:02.963Z,9.90
2022-11-18T22:04:06.433Z,9.90
2022-11-18T22:10:08.802Z,10.00
2022-11-18T22:16:16.822Z,10.00
2022-11-18T22:22:19.060Z,10.00
2022-11-18T22:28:21.307Z,9.80
2022-11-18T22:34:23.836Z,9.70
2022-11-18T22:40:25.841Z,9.60
2022-11-18T22:46:28.115Z,9.80
2022-11-18T22:52:31.112Z,9.90
2022-11-18T22:58:33.621Z,9.80
2022-11-18T23:04:35.863Z,9.90
2022-11-18T23:10:38.085Z,9.90
2022-11-18T23:16:42.265Z,9.90
2022-11-18T23:22:44.646Z,9.80
2022-11-18T23:28:46.812Z,9.60
2022-11-18T23:34:49.459Z,9.50
2022-11-18T23:40:59.369Z,9.40
2022-11-18T23:47:01.684Z,9.30
2022-11-18T23:53:03.794Z,9.40
2022-11-18T23:59:06.906Z,9.50
